OINZOSKL

Guest
Details From OINZ - SARI DASHT E NAZ
To OSKL - KAMISHLY
Flight Number -
Tags decoded
Created
Modified
Stats Distance 577 nm / 1,068 km
Max Altitude 0 ft / 0 m
Waypoints 2
Social Downloads 0
Likes 0
Share VATSIM

Download

Looking for another format? Having issues loading an existing format? Contact us
Advertisement - Login to hide

Notes

Requested: OINZ OSKL

Route

OINZ OSKL

ID Type Via Altitude Latitude Longitude Leg Dist Tot Dist Heading (true) Name
O OINZ APT - 0 ft / 0 m 36.64460˚ 53.18868˚ - 0 nm - SARI DASHT E NAZ
O OSKL APT - 0 ft / 0 m 37.02063˚ 41.19140˚ 576 nm 576 nm 276° / 269° KAMISHLY

Altitude Profile

Advertisement - Login to hide

Weather


0- 5 10 15 20 25 30 35+ Temperature / ° C

Clouds and Precipitation
Forecast for 2017-12-12 18:00 UTC. Updated an hour ago

Ground ~20,000 ft ~40,000 ft Winds

OINZ

Details ICAO OINZ (SRY)
Name SARI DASHT E NAZ
Region Iran
Timezone Asia/Tehran (UTC+3.5)
Stats Elevation 35 ft / 11 m (AMSL)
Location 36.644600° 53.188683°
Runways 1
Magnetic Variation 4.884° E

METAR

OINZ 121400Z 04004KT 9999 FEW030 SCT200 11/09 Q1027

Decode

TAF

Not found

Departure Runways

ID Width Length Bearing (true) Bearing (mag) Surface Threshold Offset Overrun Length
16 148 ft / 45 m 8,694 ft / 2,650 m 160.89° 156.01° Asphalt 0 ft / 0 m 175 ft / 53 m
34 148 ft / 45 m 8,694 ft / 2,650 m 340.89° 336.01° Asphalt 1,687 ft / 514 m 159 ft / 48 m

OSKL

Details ICAO OSKL (KAC)
Name KAMISHLY
Region Syria
Timezone Asia/Damascus (UTC+2.0)
Stats Elevation 1,480 ft / 451 m (AMSL)
Location 37.020628° 41.191401°
Runways 1
Magnetic Variation 5.462° E

METAR

OSKL 121400Z 22005KT CAVOK 16/M00 Q1023

Decode

TAF

Not found

Destination Runways

ID Width Length Bearing (true) Bearing (mag) Surface Threshold Offset Overrun Length
03 150 ft / 46 m 11,870 ft / 3,618 m 38.76° 33.30° Asphalt 0 ft / 0 m 0 ft / 0 m
21 150 ft / 46 m 11,870 ft / 3,618 m 218.78° 213.32° Asphalt 0 ft / 0 m 0 ft / 0 m